Latest Observation

42 Stations

15 Minute Data | America/Los_Angeles
as of 5/4/26 9:17 PM PDT
Station Date Time Temp (°F) RH (%) Dew Pt (°F) Wind Spd (mph) Wind Dir (°) Wind Gust (mph) Latest Rain (In) Daily Rain (In) Daily Min Temp (°F) Daily Max Temp (°F) Daily Max Wind (mph)
Elk Mt. Farm 5/4/26 2115 52.0   2.5 - - - - - - - 47.4   0.6 59.3   9.5 -
Upper Lake 5/4/26 2115 51.9   2.5 89   5 48.7   0.8 3.9 NNW | 333 12.0   0.0 0.00 0.07 47.3   0.1 59.1   7.3 16.4   2.9
Scotts Valley 5/4/26 2115 52.0   2.8 85   8 47.7   0.1 1.1 WNW | 289 4.1   2.4 0.00 0.00 50.1   5.7 59.8   8.7 12.2   1.5
Scotts Valley-South (Bella Vista) 5/4/26 2115 51.4   2.2 83   10 46.4   1.1 4.6 WNW | 292 8.3   3.5 0.00 0.00 49.8   3.2 59.7   6.3 12.3   3.1
Kelseyville 5/4/26 2115 52.6   1.8 87   14 49.0   2.7 6.8 WNW | 289 12.7   4.8 0.00 0.05 50.7   3.4 58.1   9.2 12.7   3.3
Kelseyville Remote 5/4/26 2115 53.2   2.2 80   15 47.1   3.4 - - - 0.00 0.06 51.7   4.2 59.3   8.5 -
Kelseyville (Clark Drive) 5/4/26 2115 53.0   1.2 - - - - - 0.00 0.08 50.6   3.7 58.6   9.4 -
Kelsey Bench (Oaklea) 5/4/26 2115 51.9   0.8 87   12 48.2   3.2 0.0 N | 0 0.0   0.0 0.00 0.07 49.0   1.4 57.1   7.9 12.1   4.6
Smith Lane (Kelseyville-South) 5/4/26 2115 52.7   1.2 88   13 49.2   3.2 5.2 NW | 317 8.8   0.6 0.00 0.09 50.7   3.6 58.8   6.9 13.8   3.9
Bell Hill-West 5/4/26 2115 52.7   0.8 94   10 51.2   2.4 3.8 WSW | 243 6.8   2.7 0.00 0.07 50.7   4.1 58.3   5.4 11.8   6.7
High Valley Ridgeline (Brassfield) 5/4/26 2115 48.5   1.8 96   14 47.5   2.3 10.5 W | 260 17.2   1.6 0.03 0.11 47.1   2.6 52.6   11.8 23.1   5.4
Wight Way (Adobe Creek) 5/4/26 2100 52.2   1.8 87   10 48.4   1.6 3.1 W | 281 5.9   2.2 0.00 0.07 50.4   5.1 61.1   5.4 12.3   2.0
Ridgeline Top (Brassfield) 5/4/26 2115 48.4   1.8 - - - - - - - 47.1   2.9 53.9   11.1 -
Ridgeline Low (Brassfield) 5/4/26 2115 50.3   1.8 - - - - - - - 48.8   1.9 54.6   10.4 -
Long Valley (Shannon) 5/4/26 2115 54.0   2.3 85   7 49.7   0.1 2.0 NW | 319 7.2   0.9 0.04 0.10 47.0   0.6 61.5   9.9 8.3   3.8
High Valley Winery 5/4/26 2115 51.0   1.4 88   11 47.8   2.1 4.5 WNW | 297 11.4   1.0 0.01 0.09 44.3   1.1 57.9   11.5 19.6   5.7
Round Mtn Rd. 5/4/26 1915 51.9   4.5 - - - - - - - 45.5   2.8 57.2   10.6 -
Circle O 5/4/26 2115 50.4   0.5 - - - - - - - 45.7   1.2 57.0   10.9 -
Robertsbridge Vineyards 5/4/26 2115 51.4   1.5 89   11 48.3   2.2 - - - - - 48.8   3.4 59.6   9.2 -
Urgency Vineyard 5/4/26 2115 50.4   1.9 90   12 47.6   1.9 3.5 WSW | 247 7.7   1.5 0.00 0.03 48.8   3.8 59.9   8.3 11.2   1.6
Red Hills (Beckstoffer) 5/4/26 2115 50.5   1.8 91   12 48.1   1.8 - - - 0.00 0.03 49.0   6.6 59.9   10.1 -
Winters (Shannon) 5/4/26 2115 49.5   2.1 88   11 46.0   1.3 3.8 W | 269 8.1   2.1 0.00 0.05 48.3   5.3 57.3   8.9 13.7   1.2
Secret Pond (Shannon) 5/4/26 2115 48.6   2.5 90   12 45.7   1.1 5.9 NW | 305 9.9   4.3 0.00 0.05 45.3   0.4 58.7   7.6 12.6   1.4
Rolling Knolls (Shannon) 5/4/26 2115 52.0   2.0 85   12 47.6   2.2 2.4 W | 261 6.3   0.0 0.00 0.05 50.1   5.0 60.9   7.0 13.1   0.4
Lower Lake 5/4/26 2115 51.8   1.8 88   12 48.4   2.0 5.7 W | 274 10.8   6.2 0.00 0.05 49.0   0.1 60.9   7.1 15.3   0.4
Adamson Ranch 5/4/26 2115 52.2   0.1 94   8 50.6   2.2 0.1 ENE | 66 1.1   0.2 0.00 0.13 50.6   4.0 61.5   7.6 10.5   3.1
Middletown (Diamond D) 5/4/26 2115 53.3   1.2 90   15 50.4   3.5 3.0 SE | 144 6.0   6.0 0.00 0.20 48.0   0.6 64.6   0.8 14.4   6.4
Middletown-West (Domaine Helena) 5/4/26 2115 51.9   1.1 92   13 49.7   2.9 1.1 W | 263 4.0   9.6 0.00 0.22 47.2   3.6 65.3   1.0 15.7   8.5
Middletown-South 5/4/26 2115 52.7   1.4 87   14 49.0   3.2 3.7 S | 190 9.1   3.7 0.00 0.29 47.2   0.9 63.9   1.4 16.9   3.7
Jim Davis (Langtry) 5/4/26 2115 51.4   4.0 93   19 49.6   2.1 1.8 SE | 136 5.2   0.7 0.00 0.23 47.9   0.4 63.4   3.4 11.7   2.6
Napa Valley Basin 5/4/26 2115 52.5   3.6 93   16 50.5   1.5 5.6 S | 180 9.8   5.0 0.00 0.25 42.1   5.0 64.8   3.0 11.7   4.5
Lower Bohn 5/4/26 2115 51.3   3.7 96   16 50.1   1.2 2.8 S | 189 6.8   3.6 0.00 0.24 40.7   3.1 66.8   0.6 10.8   3.4
Upper Bohn-North 5/4/26 2115 51.0   4.6 99   25 50.8   3.4 2.8 SSE | 154 5.4   2.3 0.00 0.26 45.4   3.7 65.6   2.7 8.0   6.0
Snell Peak Blk#9 5/4/26 2115 50.6   4.2 100   23 50.6   3.0 2.1 S | 174 5.3   0.3 0.00 0.27 46.5   2.3 64.5   1.3 10.0   3.4
Coyote Lake West 5/4/26 2115 51.6   4.0 94   19 50.0   2.2 3.0 SSE | 160 7.0   4.0 0.00 0.25 45.7   4.2 63.8   2.2 11.8   3.7
Coyote Lake Northeast 5/4/26 2115 51.5   3.6 95   18 50.1   2.0 - - - - - 46.2   3.5 64.7   3.3 -
Coyote Lake East 5/4/26 2115 52.8   2.6 94   16 51.1   2.6 - - - - - 44.0   5.3 65.0   2.5 -
Morgan Valley 5/4/26 2115 48.5   2.0 100   13 48.5   1.8 8.7 SSW | 201 13.2   4.0 0.00 0.26 47.3   0.0 57.5   3.4 16.6   4.0
Mine Pit North 5/4/26 2115 49.4   3.5 100   21 49.4   2.9 8.6 SSW | 197 13.4   3.4 - - 45.6   2.0 62.3   1.9 21.6   0.4
Mine Pit South 5/4/26 2115 48.6   2.8 100   22 48.6   4.0 5.6 SSE | 163 8.6   3.0 0.01 0.40 46.4   0.7 63.8   2.1 14.5   1.5
Cow Mountain 5/4/26 2115 42.6   1.7 - - 18.4 W | 266 27.4   11.6 0.00 0.06 40.9   3.1 50.7   9.3 28.5   6.1
Ukiah-SE (Ruddick) 5/4/26 2115 54.5   0.7 78   3 47.7   0.3 7.1 N | 358 10.3   2.9 0.00 0.06 49.2   4.1 61.2   4.3 13.8   3.2
Max     54.5 100 51.2 18.4 - 27.4 0.04 0.40 51.7 66.8 28.5
Avg     51.2 91 48.8 4.5 - 8.7 0.00 - - - -
Min     42.6 78 45.7 0.0 - 0.0 0.00 0.00 40.7 50.7 8.0